createdAt,value
2023-02-24T00:02:01.663Z,100927.25
2023-02-24T00:04:38.679Z,100920.91
2023-02-24T00:07:07.018Z,100918.63
2023-02-24T00:09:33.888Z,100922.50
2023-02-24T00:12:11.187Z,100910.22
2023-02-24T00:14:41.699Z,100913.41
2023-02-24T00:17:09.256Z,100897.94
2023-02-24T00:19:37.414Z,100900.50
2023-02-24T00:22:07.662Z,100902.09
2023-02-24T00:24:35.987Z,100891.25
2023-02-24T00:27:08.085Z,100891.38
2023-02-24T00:29:37.885Z,100885.91
2023-02-24T00:32:07.531Z,100883.94
2023-02-24T00:34:38.117Z,100879.19
2023-02-24T00:37:07.126Z,100878.47
2023-02-24T00:39:35.881Z,100871.06
2023-02-24T00:42:05.791Z,100873.84
2023-02-24T00:44:33.354Z,100866.53
2023-02-24T00:47:05.070Z,100858.38
2023-02-24T00:49:33.057Z,100856.19
2023-02-24T00:52:00.467Z,100850.09
2023-02-24T00:54:28.510Z,100844.00
2023-02-24T00:56:56.370Z,100848.28
2023-02-24T00:59:26.893Z,100844.97
2023-02-24T01:01:54.996Z,100844.59
2023-02-24T01:04:23.255Z,100846.44
2023-02-24T01:07:00.399Z,100835.72
2023-02-24T01:09:31.156Z,100826.22
2023-02-24T01:12:18.279Z,100820.88
2023-02-24T01:14:47.949Z,100824.28
2023-02-24T01:17:18.453Z,100819.53
2023-02-24T01:19:49.394Z,100822.09
2023-02-24T01:22:19.822Z,100820.63
2023-02-24T01:24:48.440Z,100811.38
2023-02-24T01:27:19.056Z,100802.31
2023-02-24T01:29:47.714Z,100795.50
2023-02-24T01:32:21.621Z,100796.22
2023-02-24T01:34:52.276Z,100794.28
2023-02-24T01:37:20.068Z,100786.34
2023-02-24T01:39:48.030Z,100791.97
2023-02-24T01:42:20.080Z,100792.09
2023-02-24T01:44:47.081Z,100778.56
2023-02-24T01:47:16.734Z,100783.06
2023-02-24T01:49:51.751Z,100785.59
2023-02-24T01:52:35.958Z,100775.16
2023-02-24T01:55:16.875Z,100770.63
2023-02-24T01:57:46.279Z,100765.38
2023-02-24T02:00:42.128Z,100768.03
2023-02-24T02:03:37.284Z,100758.31
2023-02-24T02:06:13.447Z,100755.03
2023-02-24T02:08:42.647Z,100745.88
2023-02-24T02:11:23.172Z,100740.28
2023-02-24T02:13:52.745Z,100737.31
2023-02-24T02:16:48.018Z,100731.00
2023-02-24T02:19:55.641Z,100733.59
2023-02-24T02:23:00.652Z,100731.34
2023-02-24T02:25:42.738Z,100728.31
2023-02-24T02:28:21.341Z,100731.22
2023-02-24T02:31:15.912Z,100728.91
2023-02-24T02:34:40.197Z,100715.75
2023-02-24T02:37:33.562Z,100717.31
2023-02-24T02:40:18.746Z,100712.94
2023-02-24T02:43:04.324Z,100708.91
2023-02-24T02:45:47.993Z,100700.84
2023-02-24T02:48:27.658Z,100703.41
2023-02-24T02:51:11.548Z,100694.25
2023-02-24T02:53:52.950Z,100693.28
2023-02-24T02:56:27.203Z,100686.66
2023-02-24T02:58:56.997Z,100687.38
2023-02-24T03:01:29.204Z,100680.19
2023-02-24T03:04:01.934Z,100678.34
2023-02-24T03:06:34.777Z,100672.72
2023-02-24T03:09:16.259Z,100661.28
2023-02-24T03:11:59.597Z,100658.59
2023-02-24T03:14:31.092Z,100659.44
2023-02-24T03:17:00.087Z,100649.44
2023-02-24T03:19:37.475Z,100648.59
2023-02-24T03:22:15.082Z,100637.72
2023-02-24T03:24:44.400Z,100632.97
2023-02-24T03:27:23.243Z,100636.41
2023-02-24T03:29:56.188Z,100634.78
2023-02-24T03:32:51.509Z,100629.81
2023-02-24T03:35:24.834Z,100627.59
2023-02-24T03:37:55.417Z,100630.41
2023-02-24T03:40:28.654Z,100621.22
2023-02-24T03:43:05.995Z,100617.81
2023-02-24T03:45:38.199Z,100601.16
2023-02-24T03:48:08.595Z,100600.06
2023-02-24T03:50:39.266Z,100595.41
2023-02-24T03:53:46.820Z,100589.81
2023-02-24T03:56:34.687Z,100588.06
2023-02-24T03:59:18.963Z,100589.75
2023-02-24T04:02:04.753Z,100587.78
2023-02-24T04:05:05.981Z,100586.69
2023-02-24T04:08:01.206Z,100583.88
2023-02-24T04:10:58.934Z,100576.78
2023-02-24T04:13:59.950Z,100575.13
2023-02-24T04:16:36.638Z,100576.94
2023-02-24T04:19:14.453Z,100570.59
2023-02-24T04:21:44.797Z,100569.75
2023-02-24T04:24:16.004Z,100569.59
2023-02-24T04:26:46.035Z,100564.38
2023-02-24T04:29:23.127Z,100567.25
2023-02-24T04:32:01.363Z,100561.88
2023-02-24T04:34:32.595Z,100570.63
2023-02-24T04:37:02.517Z,100562.59
2023-02-24T04:39:32.336Z,100559.34
2023-02-24T04:42:01.841Z,100556.41
2023-02-24T04:44:29.296Z,100545.53
2023-02-24T04:46:56.700Z,100542.56
2023-02-24T04:49:23.814Z,100546.72
2023-02-24T04:51:51.719Z,100538.38
2023-02-24T04:54:20.938Z,100529.47
2023-02-24T04:56:51.062Z,100526.78
2023-02-24T04:59:20.243Z,100525.25
2023-02-24T05:01:47.785Z,100527.38
2023-02-24T05:04:14.921Z,100523.69
2023-02-24T05:06:44.196Z,100519.88
2023-02-24T05:09:19.610Z,100518.59
2023-02-24T05:11:49.771Z,100512.81
2023-02-24T05:14:21.164Z,100513.25
2023-02-24T05:16:49.775Z,100508.72
2023-02-24T05:19:38.969Z,100513.66
2023-02-24T05:22:07.580Z,100504.19
2023-02-24T05:24:34.867Z,100504.38
2023-02-24T05:27:04.034Z,100508.59
2023-02-24T05:29:35.765Z,100510.69
2023-02-24T05:32:05.843Z,100502.97
2023-02-24T05:34:34.096Z,100503.81
2023-02-24T05:37:10.849Z,100497.72
2023-02-24T05:39:38.201Z,100482.91
2023-02-24T05:42:06.997Z,100483.16
2023-02-24T05:44:35.885Z,100473.84
2023-02-24T05:47:05.726Z,100459.69
2023-02-24T05:49:35.826Z,100461.13
2023-02-24T05:52:09.051Z,100460.00
2023-02-24T05:54:40.763Z,100456.31
2023-02-24T05:57:12.191Z,100447.41
2023-02-24T05:59:44.798Z,100448.00
2023-02-24T06:02:14.964Z,100441.75
2023-02-24T06:04:51.481Z,100440.91
2023-02-24T06:07:25.338Z,100448.41
2023-02-24T06:09:57.245Z,100446.44
2023-02-24T06:12:30.267Z,100445.44
2023-02-24T06:15:00.228Z,100447.44
2023-02-24T06:17:28.773Z,100440.38
2023-02-24T06:19:55.693Z,100444.47
2023-02-24T06:22:25.954Z,100441.34
2023-02-24T06:24:55.617Z,100437.69
2023-02-24T06:27:25.270Z,100427.06
2023-02-24T06:29:54.931Z,100427.19
2023-02-24T06:32:25.591Z,100433.13
2023-02-24T06:34:54.115Z,100425.91
2023-02-24T06:37:23.536Z,100413.94
2023-02-24T06:39:50.631Z,100410.22
2023-02-24T06:42:17.775Z,100416.03
2023-02-24T06:44:44.749Z,100414.50
2023-02-24T06:47:14.803Z,100412.19
2023-02-24T06:49:43.081Z,100407.13
2023-02-24T06:52:11.902Z,100401.44
2023-02-24T06:54:39.056Z,100405.84
2023-02-24T06:57:06.217Z,100400.47
2023-02-24T06:59:33.101Z,100396.63
2023-02-24T07:02:04.227Z,100395.38
2023-02-24T07:04:31.217Z,100393.38
2023-02-24T07:07:03.559Z,100394.41
2023-02-24T07:09:32.251Z,100393.81
2023-02-24T07:12:02.885Z,100401.88
2023-02-24T07:14:31.565Z,100398.34
2023-02-24T07:16:59.866Z,100397.91
2023-02-24T07:19:32.506Z,100399.59
2023-02-24T07:22:03.286Z,100405.81
2023-02-24T07:24:36.595Z,100397.75
2023-02-24T07:27:13.068Z,100402.53
2023-02-24T07:29:40.169Z,100401.28
2023-02-24T07:32:09.635Z,100402.97
2023-02-24T07:34:40.695Z,100396.59
2023-02-24T07:37:09.476Z,100406.63
2023-02-24T07:39:39.485Z,100399.69
2023-02-24T07:42:09.635Z,100386.66
2023-02-24T07:44:36.489Z,100385.50
2023-02-24T07:47:08.161Z,100380.13
2023-02-24T07:49:35.636Z,100383.09
2023-02-24T07:52:02.809Z,100388.34
2023-02-24T07:54:30.693Z,100390.56
2023-02-24T07:56:59.654Z,100401.59
2023-02-24T07:59:33.579Z,100403.56
2023-02-24T08:02:05.084Z,100405.69
2023-02-24T08:04:33.525Z,100397.28
2023-02-24T08:07:03.659Z,100397.56
2023-02-24T08:09:46.961Z,100398.41
2023-02-24T08:12:18.313Z,100389.63
2023-02-24T08:14:51.119Z,100395.69
2023-02-24T08:17:24.106Z,100399.63
2023-02-24T08:20:11.842Z,100396.38
2023-02-24T08:22:44.495Z,100394.91
2023-02-24T08:25:18.907Z,100400.44
2023-02-24T08:28:07.426Z,100393.47
2023-02-24T08:30:39.570Z,100387.31
2023-02-24T08:33:11.192Z,100390.09
2023-02-24T08:35:45.119Z,100395.34
2023-02-24T08:38:19.252Z,100385.94
2023-02-24T08:40:51.030Z,100389.88
2023-02-24T08:43:31.050Z,100391.50
2023-02-24T08:46:21.601Z,100396.56
2023-02-24T08:48:57.997Z,100393.28
2023-02-24T08:51:31.175Z,100393.97
2023-02-24T08:54:11.717Z,100388.94
2023-02-24T08:56:43.931Z,100396.78
2023-02-24T08:59:43.235Z,100378.81
2023-02-24T09:02:23.656Z,100375.94
2023-02-24T09:04:53.455Z,100380.38
2023-02-24T09:07:35.631Z,100384.09
2023-02-24T09:10:18.256Z,100387.34
2023-02-24T09:12:45.493Z,100383.84
2023-02-24T09:15:15.582Z,100381.50
2023-02-24T09:17:45.044Z,100381.91
2023-02-24T09:20:33.442Z,100378.91
2023-02-24T09:23:09.756Z,100384.34
2023-02-24T09:25:49.805Z,100378.97
2023-02-24T09:28:25.162Z,100379.38
2023-02-24T09:30:55.988Z,100380.38
2023-02-24T09:33:39.676Z,100367.63
2023-02-24T09:36:10.836Z,100373.03
2023-02-24T09:39:01.889Z,100371.00
2023-02-24T09:41:54.386Z,100366.81
2023-02-24T09:44:33.671Z,100363.13
2023-02-24T09:47:11.098Z,100359.25
2023-02-24T09:50:51.266Z,100363.16
2023-02-24T09:53:17.679Z,100371.50
2023-02-24T09:56:06.683Z,100374.38
2023-02-24T09:59:10.512Z,100368.88
2023-02-24T10:01:48.712Z,100362.84
2023-02-24T10:04:21.412Z,100364.22
2023-02-24T10:06:59.857Z,100370.63
2023-02-24T10:09:41.657Z,100372.03
2023-02-24T10:12:19.815Z,100371.06
2023-02-24T10:15:46.525Z,100371.00
2023-02-24T10:18:29.411Z,100368.44
2023-02-24T10:21:49.566Z,100363.59
2023-02-24T10:24:30.270Z,100368.00
2023-02-24T10:27:08.949Z,100358.19
2023-02-24T10:30:01.285Z,100359.59
2023-02-24T10:32:41.524Z,100356.38
2023-02-24T10:35:19.104Z,100357.06
2023-02-24T10:37:47.203Z,100348.28
2023-02-24T10:40:26.643Z,100355.88
2023-02-24T10:43:11.063Z,100350.16
2023-02-24T10:45:45.591Z,100354.69
2023-02-24T10:48:42.622Z,100349.78
2023-02-24T10:51:22.921Z,100349.94
2023-02-24T10:53:53.549Z,100349.13
2023-02-24T10:56:27.163Z,100354.19
2023-02-24T10:59:29.292Z,100354.19
2023-02-24T11:02:16.933Z,100351.47
2023-02-24T11:04:54.261Z,100350.09
2023-02-24T11:07:44.156Z,100348.78
2023-02-24T11:10:26.354Z,100347.59
2023-02-24T11:13:14.418Z,100348.78
2023-02-24T11:16:07.875Z,100346.44
2023-02-24T11:18:35.136Z,100343.03
2023-02-24T11:21:09.461Z,100338.97
2023-02-24T11:23:44.359Z,100344.69
2023-02-24T11:26:35.145Z,100342.84
2023-02-24T11:29:26.138Z,100334.88
2023-02-24T11:32:15.549Z,100346.72
2023-02-24T11:34:59.859Z,100346.03
2023-02-24T11:37:43.430Z,100331.13
2023-02-24T11:40:29.679Z,100330.47
2023-02-24T11:43:07.431Z,100330.47
2023-02-24T11:45:39.494Z,100332.13
2023-02-24T11:48:29.814Z,100338.75
2023-02-24T11:51:06.653Z,100330.47
2023-02-24T11:54:01.520Z,100329.44
2023-02-24T11:56:34.500Z,100330.13
2023-02-24T11:59:24.242Z,100331.13
2023-02-24T12:02:11.589Z,100326.38
2023-02-24T12:04:51.279Z,100325.25
2023-02-24T12:07:58.922Z,100320.47
2023-02-24T12:10:36.776Z,100317.22
2023-02-24T12:13:46.252Z,100318.94
2023-02-24T12:16:35.596Z,100317.22
2023-02-24T12:19:20.061Z,100305.75
2023-02-24T12:22:00.224Z,100305.53
2023-02-24T12:24:27.089Z,100302.81
2023-02-24T12:27:11.369Z,100304.34
2023-02-24T12:29:55.028Z,100298.41
2023-02-24T12:32:47.299Z,100294.66
2023-02-24T12:35:37.858Z,100286.53
2023-02-24T12:38:29.590Z,100280.00
2023-02-24T12:41:36.982Z,100283.53
2023-02-24T12:44:37.856Z,100278.91
2023-02-24T12:47:17.653Z,100290.69
2023-02-24T12:50:18.855Z,100292.44
2023-02-24T12:53:19.492Z,100283.94
2023-02-24T12:56:19.213Z,100277.69
2023-02-24T12:58:51.250Z,100282.69
2023-02-24T13:01:27.563Z,100282.03
2023-02-24T13:04:13.114Z,100273.25
2023-02-24T13:06:53.358Z,100288.88
2023-02-24T13:09:47.293Z,100292.84
2023-02-24T13:12:55.185Z,100298.06
2023-02-24T13:15:31.524Z,100303.41
2023-02-24T13:17:59.386Z,100302.31
2023-02-24T13:20:36.996Z,100305.03
2023-02-24T13:23:20.158Z,100303.19
2023-02-24T13:25:55.078Z,100308.25
2023-02-24T13:28:33.374Z,100304.50
2023-02-24T13:31:01.152Z,100317.66
2023-02-24T13:33:44.843Z,100309.34
2023-02-24T13:36:24.320Z,100302.41
2023-02-24T13:39:03.787Z,100309.81
2023-02-24T13:41:30.489Z,100297.66
2023-02-24T13:44:28.740Z,100296.16
2023-02-24T13:47:35.923Z,100297.34
2023-02-24T13:50:31.489Z,100297.19
2023-02-24T13:53:34.778Z,100293.31
2023-02-24T13:56:14.066Z,100286.41
2023-02-24T13:59:05.206Z,100282.88
2023-02-24T14:01:46.230Z,100283.91
2023-02-24T14:04:35.498Z,100275.28
2023-02-24T14:07:12.235Z,100273.31
2023-02-24T14:09:46.965Z,100274.81
2023-02-24T14:12:25.885Z,100265.53
2023-02-24T14:14:53.927Z,100261.31
2023-02-24T14:17:36.221Z,100261.66
2023-02-24T14:20:19.309Z,100255.72
2023-02-24T14:22:51.036Z,100257.41
2023-02-24T14:25:18.321Z,100266.03
2023-02-24T14:27:50.842Z,100259.28
2023-02-24T14:30:34.616Z,100252.88
2023-02-24T14:33:03.648Z,100252.50
2023-02-24T14:35:46.125Z,100254.66
2023-02-24T14:38:39.966Z,100254.28
2023-02-24T14:41:20.258Z,100258.50
2023-02-24T14:43:47.096Z,100257.78
2023-02-24T14:46:14.078Z,100260.50
2023-02-24T14:48:40.936Z,100256.13
2023-02-24T14:51:23.923Z,100257.66
2023-02-24T14:53:56.860Z,100258.50
2023-02-24T14:56:33.181Z,100260.88
2023-02-24T14:59:14.763Z,100266.13
2023-02-24T15:01:48.109Z,100264.28
2023-02-24T15:04:37.712Z,100274.75
2023-02-24T15:07:21.590Z,100272.06
2023-02-24T15:09:50.137Z,100279.16
2023-02-24T15:12:32.717Z,100274.41
2023-02-24T15:15:08.244Z,100278.63
2023-02-24T15:17:40.757Z,100278.81
2023-02-24T15:20:32.144Z,100267.66
2023-02-24T15:23:00.108Z,100267.31
2023-02-24T15:25:42.389Z,100265.97
2023-02-24T15:28:27.109Z,100271.88
2023-02-24T15:31:18.232Z,100265.97
2023-02-24T15:33:54.973Z,100271.41
2023-02-24T15:36:26.336Z,100267.34
2023-02-24T15:39:02.144Z,100267.69
2023-02-24T15:41:46.330Z,100267.00
2023-02-24T15:44:27.713Z,100267.84
2023-02-24T15:46:56.736Z,100260.94
2023-02-24T15:49:24.110Z,100268.19
2023-02-24T15:51:53.682Z,100260.44
2023-02-24T15:54:32.397Z,100261.94
2023-02-24T15:57:01.122Z,100267.34
2023-02-24T15:59:29.354Z,100262.59
2023-02-24T16:01:56.188Z,100268.00
2023-02-24T16:04:24.314Z,100260.56
2023-02-24T16:06:55.752Z,100261.94
2023-02-24T16:09:28.543Z,100266.00
2023-02-24T16:11:55.828Z,100272.41
2023-02-24T16:14:23.032Z,100280.88
2023-02-24T16:16:50.011Z,100275.13
2023-02-24T16:19:17.127Z,100275.47
2023-02-24T16:21:44.663Z,100279.53
2023-02-24T16:24:11.481Z,100284.63
2023-02-24T16:26:41.010Z,100286.28
2023-02-24T16:29:14.486Z,100295.75
2023-02-24T16:31:42.402Z,100292.72
2023-02-24T16:34:16.211Z,100302.69
2023-02-24T16:36:44.269Z,100299.31
2023-02-24T16:39:14.390Z,100305.38
2023-02-24T16:41:41.402Z,100301.00
2023-02-24T16:44:09.807Z,100309.41
2023-02-24T16:46:40.261Z,100309.78
2023-02-24T16:49:10.491Z,100301.31
2023-02-24T16:51:39.206Z,100318.31
2023-02-24T16:54:06.253Z,100319.69
2023-02-24T16:56:33.108Z,100320.34
2023-02-24T16:58:59.944Z,100323.69
2023-02-24T17:01:27.085Z,100328.75
2023-02-24T17:03:54.404Z,100328.88
2023-02-24T17:06:22.539Z,100340.84
2023-02-24T17:08:50.998Z,100342.81
2023-02-24T17:11:20.751Z,100340.59
2023-02-24T17:13:47.605Z,100335.19
2023-02-24T17:16:17.620Z,100335.97
2023-02-24T17:18:47.400Z,100337.66
2023-02-24T17:21:20.914Z,100341.31
2023-02-24T17:26:32.615Z,100345.06
2023-02-24T17:29:05.600Z,100357.94
2023-02-24T17:31:33.232Z,100358.22
2023-02-24T17:34:00.612Z,100369.59
2023-02-24T17:36:37.094Z,100377.63
2023-02-24T17:39:05.665Z,100375.72
2023-02-24T17:41:36.210Z,100385.41
2023-02-24T17:44:04.142Z,100385.09
2023-02-24T17:46:31.201Z,100396.50
2023-02-24T17:48:57.988Z,100403.63
2023-02-24T17:51:24.774Z,100399.56
2023-02-24T17:53:51.852Z,100397.88
2023-02-24T17:56:18.665Z,100398.03
2023-02-24T17:58:45.435Z,100402.88
2023-02-24T18:01:12.885Z,100412.09
2023-02-24T18:03:39.972Z,100426.84
2023-02-24T18:06:11.701Z,100414.38
2023-02-24T18:08:43.175Z,100422.75
2023-02-24T18:11:17.056Z,100422.34
2023-02-24T18:13:51.661Z,100431.16
2023-02-24T18:16:20.260Z,100435.28
2023-02-24T18:18:47.316Z,100433.72
2023-02-24T18:21:17.934Z,100438.56
2023-02-24T18:23:46.433Z,100441.69
2023-02-24T18:26:13.450Z,100454.59
2023-02-24T18:28:41.027Z,100451.63
2023-02-24T18:31:18.400Z,100465.50
2023-02-24T18:33:49.129Z,100467.66
2023-02-24T18:36:26.919Z,100479.13
2023-02-24T18:39:03.141Z,100480.56
2023-02-24T18:41:35.914Z,100484.13
2023-02-24T18:44:24.293Z,100490.09
2023-02-24T18:46:51.113Z,100493.38
2023-02-24T18:49:28.237Z,100488.53
2023-02-24T18:51:55.124Z,100490.84
2023-02-24T18:54:21.984Z,100493.22
2023-02-24T18:56:48.841Z,100496.19
2023-02-24T18:59:15.707Z,100491.38
2023-02-24T19:01:42.864Z,100491.69
2023-02-24T19:04:09.905Z,100493.94
2023-02-24T19:06:37.027Z,100503.16
2023-02-24T19:09:10.917Z,100501.00
2023-02-24T19:11:40.103Z,100502.28
2023-02-24T19:14:07.423Z,100504.41
2023-02-24T19:16:34.781Z,100504.84
2023-02-24T19:19:01.766Z,100511.47
2023-02-24T19:21:31.641Z,100506.66
2023-02-24T19:24:08.449Z,100517.38
2023-02-24T19:26:35.460Z,100526.56
2023-02-24T19:29:03.953Z,100533.47
2023-02-24T19:31:33.252Z,100533.16
2023-02-24T19:34:10.534Z,100540.22
2023-02-24T19:36:39.040Z,100536.38
2023-02-24T19:39:09.882Z,100541.56
2023-02-24T19:41:37.964Z,100540.28
2023-02-24T19:44:04.837Z,100543.75
2023-02-24T19:46:34.158Z,100547.13
2023-02-24T19:49:02.154Z,100543.97
2023-02-24T19:51:29.775Z,100550.13
2023-02-24T19:53:59.604Z,100562.25
2023-02-24T19:56:29.678Z,100561.94
2023-02-24T19:58:59.014Z,100558.91
2023-02-24T20:01:28.221Z,100569.31
2023-02-24T20:04:01.617Z,100582.97
2023-02-24T20:06:41.539Z,100573.75
2023-02-24T20:09:15.678Z,100585.25
2023-02-24T20:11:44.942Z,100583.09
2023-02-24T20:14:13.317Z,100587.00
2023-02-24T20:16:41.913Z,100581.88
2023-02-24T20:19:11.682Z,100586.81
2023-02-24T20:21:39.796Z,100592.41
2023-02-24T20:24:14.531Z,100595.31
2023-02-24T20:26:46.391Z,100609.84
2023-02-24T20:29:15.215Z,100606.69
2023-02-24T20:31:42.915Z,100614.13
2023-02-24T20:34:10.815Z,100620.91
2023-02-24T20:36:38.023Z,100620.78
2023-02-24T20:39:06.984Z,100624.34
2023-02-24T20:41:34.498Z,100636.63
2023-02-24T20:44:01.768Z,100638.31
2023-02-24T20:46:31.980Z,100636.50
2023-02-24T20:49:06.631Z,100650.13
2023-02-24T20:51:37.643Z,100654.78
2023-02-24T20:54:06.601Z,100653.06
2023-02-24T20:56:37.045Z,100654.78
2023-02-24T20:59:19.310Z,100656.50
2023-02-24T21:01:48.486Z,100667.22
2023-02-24T21:04:19.215Z,100672.56
2023-02-24T21:06:48.234Z,100663.78
2023-02-24T21:09:16.224Z,100667.94
2023-02-24T21:11:43.238Z,100668.78
2023-02-24T21:14:15.928Z,100676.09
2023-02-24T21:16:42.934Z,100680.34
2023-02-24T21:19:09.769Z,100682.66
2023-02-24T21:21:36.598Z,100680.72
2023-02-24T21:24:03.672Z,100676.56
2023-02-24T21:26:30.532Z,100676.06
2023-02-24T21:28:59.381Z,100672.38
2023-02-24T21:31:27.145Z,100671.91
2023-02-24T21:33:55.350Z,100672.47
2023-02-24T21:36:26.445Z,100673.34
2023-02-24T21:38:54.469Z,100672.25
2023-02-24T21:41:23.066Z,100678.72
2023-02-24T21:43:55.208Z,100677.72
2023-02-24T21:46:23.050Z,100681.50
2023-02-24T21:48:57.718Z,100688.31
2023-02-24T21:51:26.611Z,100689.31
2023-02-24T21:53:57.072Z,100682.34
2023-02-24T21:56:29.503Z,100691.63
2023-02-24T21:59:03.522Z,100685.16
2023-02-24T22:01:35.209Z,100692.00
2023-02-24T22:04:07.521Z,100696.00
2023-02-24T22:06:36.226Z,100695.84
2023-02-24T22:09:06.983Z,100684.16
2023-02-24T22:11:36.883Z,100694.28
2023-02-24T22:14:08.121Z,100692.00
2023-02-24T22:16:35.256Z,100691.72
2023-02-24T22:19:02.087Z,100693.44
2023-02-24T22:21:30.543Z,100688.31
2023-02-24T22:24:00.847Z,100700.28
2023-02-24T22:26:30.534Z,100705.41
2023-02-24T22:28:59.021Z,100704.16
2023-02-24T22:31:30.803Z,100707.56
2023-02-24T22:33:58.875Z,100710.25
2023-02-24T22:36:30.993Z,100706.84
2023-02-24T22:39:00.205Z,100708.53
2023-02-24T22:41:33.848Z,100718.28
2023-02-24T22:44:03.322Z,100719.84
2023-02-24T22:46:34.800Z,100721.91
2023-02-24T22:49:02.200Z,100734.47
2023-02-24T22:51:29.192Z,100727.97
2023-02-24T22:53:56.476Z,100732.25
2023-02-24T22:56:27.082Z,100738.22
2023-02-24T22:58:54.697Z,100739.53
2023-02-24T23:01:31.437Z,100741.00
2023-02-24T23:04:04.257Z,100744.50
2023-02-24T23:06:31.553Z,100745.34
2023-02-24T23:09:01.009Z,100739.16
2023-02-24T23:11:34.999Z,100737.34
2023-02-24T23:14:06.156Z,100746.25
2023-02-24T23:16:35.350Z,100745.19
2023-02-24T23:19:13.321Z,100732.16
2023-02-24T23:21:43.426Z,100742.53
2023-02-24T23:24:12.758Z,100742.44
2023-02-24T23:26:47.719Z,100738.53
2023-02-24T23:29:17.807Z,100743.41
2023-02-24T23:31:46.520Z,100743.16
2023-02-24T23:34:14.650Z,100741.59
2023-02-24T23:36:46.363Z,100748.75
2023-02-24T23:39:18.391Z,100745.72
2023-02-24T23:41:45.594Z,100749.25
2023-02-24T23:44:12.865Z,100750.25
2023-02-24T23:46:41.827Z,100747.81
2023-02-24T23:49:09.039Z,100750.97
2023-02-24T23:51:47.146Z,100747.31
2023-02-24T23:54:15.969Z,100752.53
2023-02-24T23:56:42.991Z,100751.94
2023-02-24T23:59:10.036Z,100745.47
